Time;durP1;ratioP1;P1;durP2;ratioP2;P2;SDS_P1;SDS_P2;PMS_P1;PMS_P2;Temp;Humidity;BMP_temperature;BMP_pressure;BME280_temperature;BME280_humidity;BME280_pressure;Samples;Min_cycle;Max_cycle;Signal;HPM_P1;HPM_P2
2021/04/28 00:01:56;;;;;;;14.02;9.80;;;11.50;64.10;;;;;;5003658;28;20045;-75
2021/04/28 00:04:22;;;;;;;16.52;9.75;;;11.50;62.90;;;;;;4995294;28;20023;-74
2021/04/28 00:06:49;;;;;;;16.75;9.98;;;11.50;63.50;;;;;;4995606;28;20088;-74
2021/04/28 00:09:15;;;;;;;16.80;9.32;;;11.50;64.80;;;;;;4995681;28;20489;-74
2021/04/28 00:11:41;;;;;;;18.98;9.30;;;11.50;64.10;;;;;;4999049;28;20050;-74
2021/04/28 00:14:08;;;;;;;16.65;9.32;;;11.50;63.60;;;;;;5007273;28;20033;-74
2021/04/28 00:16:36;;;;;;;14.40;9.43;;;11.50;62.70;;;;;;5018442;28;20384;-74
2021/04/28 00:19:03;;;;;;;14.13;8.82;;;11.50;64.20;;;;;;5018622;28;20037;-74
2021/04/28 00:21:29;;;;;;;24.23;10.82;;;11.40;63.80;;;;;;5017753;28;20392;-74
2021/04/28 00:23:56;;;;;;;17.02;9.50;;;11.40;64.50;;;;;;5018365;28;20030;-74
2021/04/28 00:26:21;;;;;;;15.93;9.77;;;11.40;63.90;;;;;;5017918;28;20018;-74
2021/04/28 00:28:47;;;;;;;16.13;9.80;;;11.40;63.70;;;;;;5018452;28;20036;-75
2021/04/28 00:31:13;;;;;;;17.30;9.65;;;11.30;64.50;;;;;;5017753;28;20105;-75
2021/04/28 00:33:41;;;;;;;15.60;10.25;;;11.30;64.60;;;;;;5017165;28;20046;-74
2021/04/28 00:36:07;;;;;;;17.02;9.95;;;11.30;65.30;;;;;;5016525;28;20053;-74
2021/04/28 00:38:34;;;;;;;15.10;10.57;;;11.20;65.40;;;;;;5017099;28;20408;-74
2021/04/28 00:41:04;;;;;;;18.33;10.40;;;11.30;64.30;;;;;;5016288;28;20034;-74
2021/04/28 00:43:30;;;;;;;15.68;9.80;;;11.30;64.20;;;;;;5018088;28;20112;-74
2021/04/28 00:45:57;;;;;;;18.27;10.65;;;11.20;64.00;;;;;;5016803;28;20040;-74
2021/04/28 00:48:22;;;;;;;16.10;9.45;;;11.20;63.90;;;;;;5016613;28;20026;-73
2021/04/28 00:50:50;;;;;;;16.92;9.95;;;11.10;66.60;;;;;;5013233;28;20133;-74
2021/04/28 00:53:18;;;;;;;15.50;10.43;;;11.00;66.20;;;;;;4998366;28;20027;-74
2021/04/28 00:55:44;;;;;;;19.63;10.90;;;11.00;65.60;;;;;;4998399;28;20022;-74
2021/04/28 00:58:11;;;;;;;17.77;10.68;;;11.00;65.60;;;;;;5001988;28;20030;-74
2021/04/28 01:00:38;;;;;;;18.95;11.40;;;11.00;66.40;;;;;;5016470;28;20486;-74
2021/04/28 01:03:04;;;;;;;20.45;10.48;;;11.00;67.10;;;;;;5017101;28;20038;-74
2021/04/28 01:05:30;;;;;;;20.45;10.77;;;11.00;67.60;;;;;;5016427;28;20060;-75
2021/04/28 01:07:57;;;;;;;18.48;10.40;;;11.00;65.70;;;;;;5012399;28;20041;-73
2021/04/28 01:10:26;;;;;;;19.77;10.55;;;11.00;65.90;;;;;;4996534;28;20027;-74
2021/04/28 01:12:53;;;;;;;15.40;10.85;;;11.00;66.80;;;;;;5015355;28;20109;-75
2021/04/28 01:15:24;;;;;;;17.33;11.05;;;10.90;66.20;;;;;;5032766;28;20064;-74
2021/04/28 01:17:50;;;;;;;15.88;10.10;;;10.90;67.00;;;;;;5017530;28;20126;-74
2021/04/28 01:20:18;;;;;;;20.73;10.40;;;10.90;66.80;;;;;;5017374;28;20065;-74
2021/04/28 01:22:45;;;;;;;17.05;9.73;;;10.80;68.20;;;;;;5016505;28;20105;-74
2021/04/28 01:25:16;;;;;;;17.05;11.02;;;10.70;68.20;;;;;;5016390;28;20032;-74
2021/04/28 01:28:00;;;;;;;17.75;10.27;;;10.70;68.70;;;;;;5015970;28;20036;-74
2021/04/28 01:30:35;;;;;;;17.63;11.60;;;10.70;67.60;;;;;;5017233;28;20097;-75
2021/04/28 01:33:02;;;;;;;17.48;10.52;;;10.80;67.50;;;;;;5017404;28;20025;-75
2021/04/28 01:35:28;;;;;;;19.35;10.93;;;10.70;69.10;;;;;;5015341;28;20029;-76
2021/04/28 01:37:55;;;;;;;17.98;10.80;;;10.80;67.40;;;;;;5017136;28;20034;-75
2021/04/28 01:40:22;;;;;;;15.68;9.95;;;10.80;67.40;;;;;;5032133;28;20033;-75
2021/04/28 01:42:49;;;;;;;16.25;10.63;;;10.80;67.60;;;;;;5032123;28;20030;-75
2021/04/28 01:45:16;;;;;;;15.13;10.32;;;10.70;68.10;;;;;;5016388;28;20032;-75
2021/04/28 01:47:42;;;;;;;17.27;10.30;;;10.60;68.40;;;;;;5015580;28;20033;-75
2021/04/28 01:50:11;;;;;;;18.88;10.75;;;10.60;69.30;;;;;;5015489;28;20022;-75
2021/04/28 01:52:37;;;;;;;16.08;10.15;;;10.40;69.70;;;;;;5016086;28;20034;-75
2021/04/28 01:55:04;;;;;;;16.42;10.63;;;10.50;68.80;;;;;;5016649;28;20030;-75
2021/04/28 01:57:31;;;;;;;17.25;10.23;;;10.50;69.00;;;;;;5016825;28;21051;-75
2021/04/28 01:59:57;;;;;;;18.85;11.13;;;10.50;69.40;;;;;;5019425;28;20117;-75
2021/04/28 02:02:24;;;;;;;18.25;10.40;;;10.50;68.70;;;;;;5016618;28;20452;-76
2021/04/28 02:04:54;;;;;;;19.40;10.77;;;10.50;69.10;;;;;;5014767;28;20022;-75
2021/04/28 02:07:20;;;;;;;;;;;10.50;68.30;;;;;;4997327;28;20031;-76
2021/04/28 02:09:46;;;;;;;18.25;10.60;;;10.40;69.60;;;;;;4995794;28;20412;-75
2021/04/28 02:12:12;;;;;;;18.48;11.02;;;10.40;69.40;;;;;;5011793;28;20026;-75
2021/04/28 02:14:40;;;;;;;17.13;11.20;;;10.40;69.40;;;;;;5025362;28;20026;-75
2021/04/28 02:17:07;;;;;;;18.83;11.35;;;10.40;68.90;;;;;;5013983;28;20046;-75
2021/04/28 02:19:34;;;;;;;18.83;11.60;;;10.40;69.00;;;;;;5016352;28;20037;-75
2021/04/28 02:22:01;;;;;;;16.05;11.52;;;10.40;68.40;;;;;;5014815;28;20049;-75
2021/04/28 02:24:27;;;;;;;19.05;11.40;;;10.40;69.00;;;;;;5014807;28;20034;-76
2021/04/28 02:26:57;;;;;;;17.80;11.13;;;10.40;68.30;;;;;;5010880;28;20037;-75
2021/04/28 02:29:24;;;;;;;22.05;11.95;;;10.30;68.80;;;;;;4996612;28;20048;-76
2021/04/28 02:31:50;;;;;;;20.95;11.77;;;10.40;68.10;;;;;;4996012;28;20084;-76
2021/04/28 02:34:16;;;;;;;17.20;11.82;;;10.30;69.00;;;;;;5014106;28;20034;-76
2021/04/28 02:36:45;;;;;;;18.73;12.43;;;10.30;69.40;;;;;;5031417;28;20026;-75
2021/04/28 02:39:16;;;;;;;21.10;12.15;;;10.30;68.60;;;;;;5029560;28;20026;-75
2021/04/28 02:41:43;;;;;;;19.77;11.93;;;10.30;68.90;;;;;;5015836;28;20049;-75
2021/04/28 02:44:11;;;;;;;23.08;13.35;;;10.30;69.70;;;;;;5015299;28;20034;-75
2021/04/28 02:46:38;;;;;;;27.10;13.77;;;10.20;69.20;;;;;;5015958;28;20033;-75
2021/04/28 02:49:05;;;;;;;21.10;12.80;;;10.20;69.10;;;;;;5013933;28;20026;-75
2021/04/28 02:51:32;;;;;;;20.13;12.52;;;10.20;68.80;;;;;;5015873;28;20022;-75
2021/04/28 02:54:00;;;;;;;23.00;14.55;;;10.20;70.10;;;;;;5015084;28;20412;-75
2021/04/28 02:56:29;;;;;;;20.80;13.65;;;10.10;69.20;;;;;;5015662;28;20034;-75
2021/04/28 02:58:56;;;;;;;20.17;13.57;;;10.10;71.00;;;;;;5014983;28;20030;-75
2021/04/28 03:01:22;;;;;;;18.80;13.30;;;10.10;71.60;;;;;;5015746;28;20060;-75
2021/04/28 03:03:50;;;;;;;19.95;13.30;;;10.10;70.30;;;;;;5015355;28;20033;-75
2021/04/28 03:06:16;;;;;;;23.63;13.40;;;10.10;70.60;;;;;;5015453;28;20525;-75
2021/04/28 03:08:43;;;;;;;25.80;13.93;;;10.10;71.00;;;;;;5015620;28;20097;-75
2021/04/28 03:11:10;;;;;;;24.65;13.35;;;10.10;69.70;;;;;;5014151;28;20026;-75
2021/04/28 03:13:37;;;;;;;20.70;13.85;;;10.10;71.30;;;;;;5010424;28;20125;-76
2021/04/28 03:16:03;;;;;;;21.80;13.27;;;10.10;70.20;;;;;;4997507;28;20026;-75
2021/04/28 03:18:29;;;;;;;21.83;13.20;;;10.10;70.50;;;;;;5015352;28;20105;-75
2021/04/28 03:20:55;;;;;;;21.38;12.60;;;10.10;71.60;;;;;;5015581;28;20105;-75
2021/04/28 03:23:21;;;;;;;21.63;13.70;;;10.10;70.00;;;;;;5015321;28;20163;-75
2021/04/28 03:25:47;;;;;;;24.52;12.77;;;10.00;71.00;;;;;;5014848;28;20030;-75
2021/04/28 03:28:13;;;;;;;19.83;12.30;;;10.00;71.40;;;;;;5015377;28;20044;-75
2021/04/28 03:30:39;;;;;;;18.95;12.35;;;9.90;72.70;;;;;;5015378;28;20068;-75
2021/04/28 03:33:04;;;;;;;21.40;12.30;;;9.70;73.30;;;;;;5030507;28;20523;-75
2021/04/28 03:35:30;;;;;;;20.98;13.25;;;9.70;72.90;;;;;;5014787;28;20034;-75
2021/04/28 03:37:56;;;;;;;23.65;12.85;;;9.70;74.20;;;;;;5015270;28;20120;-75
2021/04/28 03:40:22;;;;;;;19.95;12.90;;;9.60;74.20;;;;;;5015190;28;20033;-75
2021/04/28 03:42:47;;;;;;;19.35;13.82;;;9.60;73.30;;;;;;5014538;28;20073;-75
2021/04/28 03:45:13;;;;;;;18.13;11.40;;;9.60;71.90;;;;;;5018267;28;20026;-75
2021/04/28 03:47:39;;;;;;;22.55;13.35;;;9.70;71.90;;;;;;5033714;28;20053;-75
2021/04/28 03:50:06;;;;;;;20.60;13.25;;;9.70;71.60;;;;;;5019115;28;20547;-75
2021/04/28 03:52:32;;;;;;;19.50;12.73;;;9.70;73.00;;;;;;5019138;28;20508;-75
2021/04/28 03:54:58;;;;;;;18.15;12.35;;;9.70;72.20;;;;;;5018693;28;20049;-75
2021/04/28 03:57:24;;;;;;;22.25;13.80;;;9.70;72.20;;;;;;5017856;28;20061;-75
2021/04/28 03:59:50;;;;;;;25.02;15.18;;;9.70;72.30;;;;;;5017031;28;21128;-75
2021/04/28 04:02:16;;;;;;;19.58;13.27;;;9.70;71.20;;;;;;5034061;28;20030;-75
2021/04/28 04:04:42;;;;;;;23.38;12.52;;;9.70;71.10;;;;;;5033126;28;20041;-76
2021/04/28 04:07:08;;;;;;;21.58;13.07;;;9.60;73.00;;;;;;5034359;28;20025;-75
2021/04/28 04:09:34;;;;;;;17.58;12.05;;;9.60;73.30;;;;;;5016949;28;20481;-75
2021/04/28 04:11:59;;;;;;;19.65;12.70;;;9.60;71.90;;;;;;5010428;28;20062;-75
2021/04/28 04:14:25;;;;;;;20.25;13.50;;;9.60;72.00;;;;;;5018831;28;20463;-75
2021/04/28 04:16:50;;;;;;;20.75;12.73;;;9.60;70.40;;;;;;5017464;28;20109;-76
2021/04/28 04:19:16;;;;;;;19.88;12.80;;;9.60;71.60;;;;;;5017303;28;20056;-76
2021/04/28 04:21:42;;;;;;;21.00;12.93;;;9.60;72.50;;;;;;5013453;28;20504;-75
2021/04/28 04:24:08;;;;;;;22.20;13.18;;;9.60;72.80;;;;;;5013868;28;20098;-75
2021/04/28 04:26:34;;;;;;;18.40;12.27;;;9.60;71.00;;;;;;4997432;28;20022;-75
2021/04/28 04:29:00;;;;;;;19.13;11.73;;;9.50;71.30;;;;;;4998902;28;20038;-75
2021/04/28 04:31:26;;;;;;;16.85;11.73;;;9.50;71.30;;;;;;5006825;28;20026;-75
2021/04/28 04:33:52;;;;;;;20.27;11.52;;;9.30;72.50;;;;;;5018483;28;20037;-75
2021/04/28 04:36:17;;;;;;;19.55;12.50;;;9.20;73.90;;;;;;5018351;28;20101;-75
2021/04/28 04:38:43;;;;;;;19.40;12.07;;;9.10;73.10;;;;;;5018433;28;20108;-75
2021/04/28 04:41:09;;;;;;;17.00;11.90;;;9.10;72.70;;;;;;5016267;28;20116;-75
2021/04/28 04:43:35;;;;;;;23.58;12.15;;;9.10;73.30;;;;;;5018035;28;20084;-75
2021/04/28 04:46:00;;;;;;;20.80;12.80;;;9.10;72.50;;;;;;5016250;28;20105;-75
2021/04/28 04:48:26;;;;;;;17.75;11.98;;;9.00;72.30;;;;;;5018171;28;20418;-75
2021/04/28 04:50:52;;;;;;;20.65;12.57;;;9.00;72.60;;;;;;5018178;28;20389;-75
2021/04/28 04:53:17;;;;;;;18.80;12.50;;;8.80;72.40;;;;;;5017591;28;20459;-75
2021/04/28 04:55:43;;;;;;;17.35;11.85;;;8.80;73.50;;;;;;5032431;28;20033;-75
2021/04/28 04:58:09;;;;;;;16.88;11.80;;;8.80;73.30;;;;;;5033184;28;20039;-76
2021/04/28 05:00:34;;;;;;;24.70;13.75;;;8.80;72.80;;;;;;5017398;28;20018;-78
2021/04/28 05:03:00;;;;;;;17.77;11.88;;;8.80;72.90;;;;;;5017937;28;20393;-78
2021/04/28 05:05:26;;;;;;;19.58;11.45;;;8.80;73.30;;;;;;5017389;28;20041;-78
2021/04/28 05:07:53;;;;;;;18.15;11.57;;;8.80;72.50;;;;;;5016467;28;20030;-77
2021/04/28 05:10:18;;;;;;;17.52;11.30;;;8.80;72.30;;;;;;5017181;28;20026;-79
2021/04/28 05:12:47;;;;;;;22.38;12.48;;;8.90;71.90;;;;;;5016631;28;20824;-78
2021/04/28 05:15:14;;;;;;;20.13;11.98;;;8.90;72.70;;;;;;5017131;28;20113;-78
2021/04/28 05:17:41;;;;;;;20.25;12.55;;;9.00;71.80;;;;;;5017943;28;20025;-81
2021/04/28 05:20:07;;;;;;;23.45;12.48;;;9.10;72.40;;;;;;5014322;28;20519;-83
2021/04/28 05:22:34;;;;;;;18.00;13.23;;;9.20;71.80;;;;;;5014754;28;20054;-77
2021/04/28 05:25:00;;;;;;;19.65;12.40;;;9.30;72.10;;;;;;5015669;28;20026;-78
2021/04/28 05:27:26;;;;;;;20.95;12.77;;;9.40;71.90;;;;;;5015484;28;20025;-78
2021/04/28 05:29:53;;;;;;;20.27;12.68;;;9.50;72.00;;;;;;5010411;28;20046;-78
2021/04/28 05:32:19;;;;;;;20.90;13.10;;;9.60;71.90;;;;;;5012394;28;20033;-79
2021/04/28 05:34:45;;;;;;;18.40;11.60;;;9.80;70.00;;;;;;4996834;28;20477;-78
2021/04/28 05:37:13;;;;;;;18.15;12.77;;;9.80;70.60;;;;;;5015296;28;20400;-78
2021/04/28 05:39:40;;;;;;;20.20;12.63;;;9.80;70.00;;;;;;5017147;28;20022;-78
2021/04/28 05:42:06;;;;;;;23.67;12.77;;;9.90;67.90;;;;;;5017101;28;20033;-78
2021/04/28 05:44:32;;;;;;;22.05;12.65;;;10.00;67.80;;;;;;5016482;28;20033;-78
2021/04/28 05:46:58;;;;;;;17.45;11.90;;;10.00;68.40;;;;;;5017250;28;20026;-77
2021/04/28 05:49:24;;;;;;;16.80;11.98;;;10.00;68.90;;;;;;5022289;28;20038;-78
2021/04/28 05:51:49;;;;;;;19.00;12.30;;;10.00;71.20;;;;;;5036800;28;20056;-77
2021/04/28 05:54:15;;;;;;;19.67;12.85;;;10.00;72.70;;;;;;5035367;28;20021;-76
2021/04/28 05:56:41;;;;;;;17.77;11.48;;;10.00;72.80;;;;;;5033521;28;20028;-75
2021/04/28 05:59:07;;;;;;;17.05;11.75;;;10.10;72.50;;;;;;5045012;28;20032;-77
2021/04/28 06:01:33;;;;;;;20.27;13.32;;;10.20;71.40;;;;;;5056373;28;20752;-78
2021/04/28 06:03:59;;;;;;;20.83;12.27;;;10.30;71.60;;;;;;5040963;28;20112;-78
2021/04/28 06:06:26;;;;;;;18.55;12.98;;;10.50;70.80;;;;;;5034962;28;20029;-78
2021/04/28 06:08:51;;;;;;;21.83;12.68;;;10.50;70.90;;;;;;5035170;28;20022;-78
2021/04/28 06:11:18;;;;;;;20.30;13.20;;;10.60;71.30;;;;;;5033818;28;20025;-78
2021/04/28 06:13:44;;;;;;;22.33;13.82;;;10.70;69.70;;;;;;5038382;28;20111;-78
2021/04/28 06:16:11;;;;;;;20.08;12.40;;;10.80;70.90;;;;;;5034000;28;20044;-79
2021/04/28 06:18:37;;;;;;;17.67;12.80;;;10.80;71.10;;;;;;5037036;28;20034;-78
2021/04/28 06:21:04;;;;;;;19.90;13.18;;;10.90;68.60;;;;;;5014685;28;20405;-78
2021/04/28 06:23:30;;;;;;;19.40;12.98;;;11.00;70.30;;;;;;5021592;28;20423;-78
2021/04/28 06:25:56;;;;;;;17.10;12.18;;;11.10;70.50;;;;;;5050898;28;20028;-78
2021/04/28 06:28:21;;;;;;;20.25;12.27;;;11.10;70.90;;;;;;5035526;28;20384;-79
2021/04/28 06:30:47;;;;;;;19.70;12.82;;;11.30;70.10;;;;;;5033412;28;20482;-78
2021/04/28 06:33:13;;;;;;;17.30;11.80;;;11.30;70.50;;;;;;5034067;28;20037;-77
2021/04/28 06:35:38;;;;;;;15.32;11.55;;;11.40;71.20;;;;;;5040598;28;20029;-76
2021/04/28 06:38:04;;;;;;;22.13;13.27;;;11.40;70.30;;;;;;5032288;28;20116;-77
2021/04/28 06:40:30;;;;;;;16.73;11.95;;;11.60;71.50;;;;;;5034079;28;20032;-78
2021/04/28 06:42:56;;;;;;;16.90;10.57;;;11.70;71.20;;;;;;5032563;28;20025;-77
2021/04/28 06:45:21;;;;;;;15.52;10.52;;;11.90;67.90;;;;;;5034146;28;20091;-78
2021/04/28 06:47:47;;;;;;;16.00;9.95;;;12.00;68.40;;;;;;5033587;28;20455;-77
2021/04/28 06:50:13;;;;;;;15.52;9.77;;;12.10;68.00;;;;;;5034186;28;20476;-77
2021/04/28 06:52:42;;;;;;;16.73;9.77;;;12.10;68.80;;;;;;5037093;28;20025;-77
2021/04/28 06:55:10;;;;;;;13.80;9.25;;;12.10;67.70;;;;;;5035802;28;20125;-78
2021/04/28 06:57:35;;;;;;;14.43;10.52;;;12.00;67.50;;;;;;5033281;28;20029;-77
2021/04/28 07:00:02;;;;;;;15.85;10.25;;;12.00;69.40;;;;;;5033739;28;20036;-78
2021/04/28 07:02:28;;;;;;;16.23;10.18;;;11.90;68.50;;;;;;5033774;28;20025;-78
2021/04/28 07:04:53;;;;;;;15.05;10.10;;;11.90;68.20;;;;;;5034392;28;20033;-78
2021/04/28 07:07:19;;;;;;;15.85;11.32;;;11.90;69.20;;;;;;5033498;28;20025;-78
2021/04/28 07:09:44;;;;;;;14.50;9.93;;;12.10;67.50;;;;;;5032773;28;20048;-79
2021/04/28 07:12:10;;;;;;;14.75;9.40;;;12.20;69.10;;;;;;5034952;28;20051;-78
2021/04/28 07:14:36;;;;;;;12.20;9.55;;;12.30;67.30;;;;;;5034097;28;20036;-78
2021/04/28 07:17:02;;;;;;;14.20;9.90;;;13.00;66.10;;;;;;5033419;28;20681;-79
2021/04/28 07:19:27;;;;;;;16.48;8.82;;;13.60;64.60;;;;;;5033978;28;20518;-79
2021/04/28 07:21:53;;;;;;;12.98;7.63;;;14.00;61.70;;;;;;5031529;28;20080;-79
2021/04/28 07:24:19;;;;;;;10.63;6.70;;;14.50;60.40;;;;;;5028578;28;20483;-79
2021/04/28 07:26:45;;;;;;;8.32;6.22;;;14.90;59.00;;;;;;5038724;28;20029;-79
2021/04/28 07:29:10;;;;;;;9.68;6.05;;;15.40;58.60;;;;;;5056520;28;20377;-80
2021/04/28 07:31:36;;;;;;;12.00;6.68;;;15.50;57.20;;;;;;5032983;28;20041;-80
2021/04/28 07:34:02;;;;;;;8.18;5.53;;;15.90;57.30;;;;;;5033356;28;20036;-79
2021/04/28 07:36:28;;;;;;;8.18;4.97;;;16.80;55.10;;;;;;5049860;28;20525;-80
2021/04/28 07:38:54;;;;;;;10.65;5.85;;;17.50;53.40;;;;;;5046242;28;20033;-79
2021/04/28 07:41:19;;;;;;;6.82;4.30;;;18.40;52.10;;;;;;5033302;28;20036;-79
2021/04/28 07:43:45;;;;;;;7.80;4.07;;;19.40;49.60;;;;;;5036313;28;20490;-79
2021/04/28 07:46:11;;;;;;;8.55;3.67;;;19.90;47.30;;;;;;5068779;28;20029;-79
2021/04/28 07:48:36;;;;;;;5.65;3.65;;;19.30;47.10;;;;;;5036812;28;20068;-79
2021/04/28 07:51:03;;;;;;;5.95;3.13;;;18.30;49.50;;;;;;5032319;28;20040;-79
2021/04/28 07:53:29;;;;;;;7.15;3.72;;;17.50;51.00;;;;;;5031560;28;20057;-78
2021/04/28 07:55:55;;;;;;;5.80;3.67;;;16.80;52.40;;;;;;5034251;28;20025;-79
2021/04/28 07:58:21;;;;;;;5.25;3.15;;;16.40;54.00;;;;;;5034565;28;20072;-79
2021/04/28 08:00:46;;;;;;;5.05;2.97;;;16.00;55.60;;;;;;5052462;28;20025;-79
2021/04/28 08:03:12;;;;;;;6.82;3.25;;;15.70;56.40;;;;;;5030931;28;20025;-79
2021/04/28 08:05:38;;;;;;;6.25;2.67;;;15.50;55.90;;;;;;5036677;28;20041;-79
2021/04/28 08:08:05;;;;;;;5.13;2.20;;;15.40;56.60;;;;;;5045539;28;20024;-79
2021/04/28 08:10:31;;;;;;;6.15;2.22;;;15.30;56.30;;;;;;5042460;28;20045;-79
2021/04/28 08:12:57;;;;;;;4.40;2.05;;;15.20;56.30;;;;;;5038612;28;20480;-79
2021/04/28 08:15:23;;;;;;;6.10;1.95;;;15.20;56.10;;;;;;5034323;28;20033;-79
2021/04/28 08:17:49;;;;;;;3.38;1.80;;;15.20;56.00;;;;;;5031579;28;20026;-79
2021/04/28 08:20:15;;;;;;;3.70;1.83;;;15.00;54.50;;;;;;5033686;28;20108;-79
2021/04/28 08:22:42;;;;;;;4.22;1.70;;;15.00;54.90;;;;;;5033213;28;20095;-79
2021/04/28 08:25:11;;;;;;;5.57;2.00;;;15.00;54.40;;;;;;5032418;28;20033;-79
2021/04/28 08:27:37;;;;;;;7.53;2.80;;;15.00;54.90;;;;;;5033420;28;20032;-80
2021/04/28 08:30:06;;;;;;;7.85;2.88;;;15.10;54.70;;;;;;5035609;28;20505;-79
2021/04/28 08:32:32;;;;;;;5.22;2.15;;;15.70;53.60;;;;;;5035126;28;20029;-80
2021/04/28 08:34:57;;;;;;;4.38;2.50;;;16.80;51.30;;;;;;5039153;28;20495;-81
2021/04/28 08:37:23;;;;;;;4.32;2.50;;;19.00;48.00;;;;;;5039300;28;20021;-78
2021/04/28 08:39:49;;;;;;;5.05;2.30;;;19.20;45.10;;;;;;5036903;28;20030;-80
2021/04/28 08:42:16;;;;;;;5.53;2.53;;;19.20;44.30;;;;;;5038494;28;20123;-78
2021/04/28 08:44:42;;;;;;;6.78;2.47;;;21.20;43.00;;;;;;5037053;28;20522;-78
2021/04/28 08:47:08;;;;;;;6.45;2.50;;;23.10;40.60;;;;;;5036065;28;20095;-79
2021/04/28 08:49:33;;;;;;;5.45;2.97;;;24.50;38.10;;;;;;5032908;28;20025;-79
2021/04/28 08:52:00;;;;;;;6.03;2.42;;;25.50;37.00;;;;;;5038332;28;20053;-80
2021/04/28 08:54:26;;;;;;;3.85;2.22;;;26.50;35.50;;;;;;5036063;28;20017;-79
2021/04/28 08:56:55;;;;;;;4.35;2.08;;;27.00;34.20;;;;;;5034091;28;20030;-79
2021/04/28 08:59:21;;;;;;;4.05;2.22;;;27.60;33.40;;;;;;5034246;28;20499;-80
2021/04/28 09:01:48;;;;;;;3.85;1.33;;;28.10;31.60;;;;;;5025328;28;20018;-80
2021/04/28 09:04:24;;;;;;;2.92;1.40;;;28.30;31.70;;;;;;5032882;28;20025;-80
2021/04/28 09:06:51;;;;;;;3.35;1.48;;;28.70;31.10;;;;;;5029640;28;20056;-79
2021/04/28 09:09:18;;;;;;;3.53;1.60;;;28.90;30.40;;;;;;5026807;28;20026;-79
2021/04/28 09:11:48;;;;;;;4.97;2.05;;;29.10;31.00;;;;;;5025891;28;20724;-80
2021/04/28 09:14:17;;;;;;;4.50;1.90;;;29.20;31.20;;;;;;5030177;28;20032;-80
2021/04/28 09:17:02;;;;;;;3.95;1.80;;;29.50;31.30;;;;;;5024436;28;20115;-80
2021/04/28 09:19:39;;;;;;;3.20;1.25;;;29.90;30.30;;;;;;5027032;28;20484;-79
2021/04/28 09:22:07;;;;;;;4.68;1.40;;;28.60;30.60;;;;;;5035774;28;20500;-79
2021/04/28 09:24:45;;;;;;;3.13;1.48;;;27.30;31.00;;;;;;5027849;28;21269;-79
2021/04/28 09:27:26;;;;;;;3.53;1.20;;;27.00;31.10;;;;;;5025476;28;20018;-79
2021/04/28 09:29:53;;;;;;;4.72;1.73;;;26.70;31.00;;;;;;5029770;28;20115;-79
2021/04/28 09:32:19;;;;;;;3.40;1.90;;;26.90;31.90;;;;;;5020658;28;20029;-79
2021/04/28 09:34:45;;;;;;;4.10;1.70;;;27.40;32.00;;;;;;5038609;28;20088;-79
2021/04/28 09:37:13;;;;;;;3.88;1.52;;;27.20;31.30;;;;;;5035972;28;20025;-79
2021/04/28 09:39:44;;;;;;;3.10;1.45;;;26.70;31.30;;;;;;5035761;28;20033;-79
2021/04/28 09:42:11;;;;;;;4.20;1.83;;;26.50;31.80;;;;;;5035991;28;20048;-79
2021/04/28 09:44:38;;;;;;;4.20;1.42;;;26.60;32.50;;;;;;5034903;28;20021;-79
2021/04/28 09:47:10;;;;;;;2.53;1.85;;;25.70;32.20;;;;;;5034809;28;20032;-79
2021/04/28 09:49:52;;;;;;;4.65;1.52;;;26.40;33.00;;;;;;5034621;28;20022;-79
2021/04/28 09:52:29;;;;;;;2.83;1.30;;;26.70;32.80;;;;;;5029182;28;20033;-79
2021/04/28 09:54:59;;;;;;;4.05;1.30;;;26.50;31.70;;;;;;5024340;28;20029;-79
2021/04/28 09:57:37;;;;;;;3.65;1.30;;;26.20;33.20;;;;;;5023525;28;20036;-79
2021/04/28 10:00:25;;;;;;;3.58;1.30;;;26.60;32.70;;;;;;5028620;28;20021;-79
2021/04/28 10:03:09;;;;;;;3.17;1.23;;;27.10;31.70;;;;;;5025739;28;20050;-79
2021/04/28 10:05:37;;;;;;;4.47;1.40;;;27.10;30.80;;;;;;5026016;28;20029;-79
2021/04/28 10:08:09;;;;;;;5.20;1.65;;;27.20;32.00;;;;;;5024667;28;20442;-79
2021/04/28 10:10:35;;;;;;;2.60;1.30;;;27.40;31.10;;;;;;5026676;28;20028;-79
2021/04/28 10:13:02;;;;;;;7.20;1.27;;;26.70;31.10;;;;;;5024272;28;20014;-78
2021/04/28 10:15:28;;;;;;;4.55;1.02;;;25.80;32.10;;;;;;5024345;28;20025;-78
2021/04/28 10:17:55;;;;;;;2.38;1.05;;;25.50;32.50;;;;;;5026516;28;20044;-78
2021/04/28 10:20:21;;;;;;;4.32;1.33;;;25.40;34.00;;;;;;5024224;28;20018;-78
2021/04/28 10:22:47;;;;;;;3.72;1.30;;;25.00;32.80;;;;;;5041618;28;20060;-77
2021/04/28 10:25:14;;;;;;;2.90;1.20;;;24.60;33.70;;;;;;5026913;28;20379;-78
2021/04/28 10:27:41;;;;;;;3.72;1.23;;;24.10;34.10;;;;;;5030346;28;20071;-78
2021/04/28 10:30:08;;;;;;;4.38;1.70;;;24.00;34.90;;;;;;5030398;28;20068;-78
2021/04/28 10:32:36;;;;;;;2.97;1.05;;;23.80;35.30;;;;;;5030896;28;20025;-78
2021/04/28 10:35:15;;;;;;;2.80;1.20;;;23.70;36.80;;;;;;5032242;28;20030;-79
2021/04/28 10:37:45;;;;;;;2.78;1.23;;;23.40;36.00;;;;;;5027885;28;20072;-79
2021/04/28 10:40:14;;;;;;;3.60;1.23;;;23.10;36.30;;;;;;5037294;28;20442;-78
2021/04/28 10:42:41;;;;;;;3.40;1.20;;;22.70;36.00;;;;;;5046432;28;20108;-78
2021/04/28 10:45:23;;;;;;;3.35;0.98;;;22.50;36.10;;;;;;5051189;28;20028;-78
2021/04/28 10:47:50;;;;;;;2.42;1.00;;;22.20;35.60;;;;;;5021226;28;20025;-77
2021/04/28 10:50:24;;;;;;;1.75;1.08;;;22.10;35.20;;;;;;5015249;28;20049;-78
2021/04/28 10:53:02;;;;;;;2.85;0.80;;;22.00;34.30;;;;;;5031160;28;20030;-78
2021/04/28 10:55:54;;;;;;;1.88;0.98;;;22.00;35.60;;;;;;5034457;28;20029;-77
2021/04/28 10:58:29;;;;;;;3.03;1.25;;;21.80;35.40;;;;;;5036792;28;20029;-77
2021/04/28 11:01:07;;;;;;;2.50;1.00;;;21.60;37.30;;;;;;5041818;28;20026;-77
2021/04/28 11:03:35;;;;;;;2.42;0.88;;;21.50;38.20;;;;;;5034796;28;20033;-77
2021/04/28 11:06:20;;;;;;;2.05;1.00;;;21.60;36.40;;;;;;5052837;28;20123;-77
2021/04/28 11:09:02;;;;;;;3.40;0.70;;;21.30;37.10;;;;;;5034831;28;20108;-77
2021/04/28 11:11:31;;;;;;;4.78;1.13;;;21.00;36.30;;;;;;5034559;28;20079;-77
2021/04/28 11:14:22;;;;;;;2.83;1.10;;;21.00;37.30;;;;;;5034774;28;20088;-77
2021/04/28 11:16:49;;;;;;;1.63;0.85;;;21.00;37.00;;;;;;5033821;28;20030;-77
2021/04/28 11:19:16;;;;;;;2.95;0.90;;;21.00;37.90;;;;;;5031954;28;20053;-77
2021/04/28 11:21:42;;;;;;;2.33;0.80;;;21.20;36.90;;;;;;5033151;28;20034;-77
2021/04/28 11:24:10;;;;;;;1.23;0.60;;;21.30;36.60;;;;;;5034552;28;20057;-77
2021/04/28 11:26:48;;;;;;;2.85;0.70;;;21.30;35.60;;;;;;5034207;28;20026;-77
2021/04/28 11:29:14;;;;;;;4.15;1.00;;;21.20;37.00;;;;;;5034619;28;20025;-77
2021/04/28 11:31:47;;;;;;;1.98;0.80;;;21.20;35.50;;;;;;5028278;28;20834;-78
2021/04/28 11:34:33;;;;;;;2.17;0.60;;;21.10;36.40;;;;;;5032529;28;20045;-77
2021/04/28 11:37:06;;;;;;;1.50;0.90;;;20.80;36.80;;;;;;5033204;28;20029;-77
2021/04/28 11:39:33;;;;;;;1.58;0.75;;;20.90;37.30;;;;;;5034211;28;20054;-77
2021/04/28 11:42:07;;;;;;;1.27;0.88;;;20.90;37.20;;;;;;5034403;28;20596;-77
2021/04/28 11:44:35;;;;;;;0.88;0.60;;;20.90;37.40;;;;;;5033816;28;20411;-77
2021/04/28 11:47:15;;;;;;;3.28;0.70;;;20.80;39.40;;;;;;5033342;28;20029;-77
2021/04/28 11:49:47;;;;;;;2.05;0.90;;;20.90;36.30;;;;;;4995093;28;20049;-77
2021/04/28 11:52:13;;;;;;;1.50;0.73;;;20.90;37.50;;;;;;5008096;28;20931;-78
2021/04/28 11:54:40;;;;;;;2.55;0.75;;;20.70;35.10;;;;;;5013560;28;20026;-77
2021/04/28 11:57:06;;;;;;;1.35;0.63;;;20.00;36.80;;;;;;5011512;28;20022;-77
2021/04/28 11:59:36;;;;;;;3.50;0.80;;;19.80;39.70;;;;;;5013300;28;20673;-77
2021/04/28 12:02:04;;;;;;;1.27;0.50;;;20.00;39.40;;;;;;5013341;28;20022;-78
2021/04/28 12:04:35;;;;;;;1.10;0.43;;;20.20;37.30;;;;;;5011138;28;20292;-77
2021/04/28 12:07:02;;;;;;;1.63;0.75;;;20.30;36.60;;;;;;5015848;28;20120;-77
2021/04/28 12:09:35;;;;;;;2.80;0.47;;;20.50;37.00;;;;;;5018649;28;20681;-78
2021/04/28 12:12:11;;;;;;;2.13;0.70;;;20.70;38.50;;;;;;5016977;28;20041;-77
2021/04/28 12:14:39;;;;;;;1.33;0.60;;;20.70;38.30;;;;;;5016998;28;20025;-78
2021/04/28 12:17:05;;;;;;;3.00;1.02;;;20.90;37.40;;;;;;5017390;28;20018;-78
2021/04/28 12:19:31;;;;;;;3.05;1.27;;;20.90;37.10;;;;;;5011152;28;20120;-77
2021/04/28 12:22:01;;;;;;;2.63;1.40;;;21.00;37.60;;;;;;5018253;28;20053;-78
2021/04/28 12:24:47;;;;;;;1.50;0.85;;;21.00;38.50;;;;;;5016686;28;20065;-78
2021/04/28 12:27:22;;;;;;;4.22;0.95;;;21.00;38.40;;;;;;5017420;28;20025;-78
2021/04/28 12:29:51;;;;;;;2.15;1.00;;;20.90;38.00;;;;;;5017282;28;20141;-77
2021/04/28 12:32:19;;;;;;;1.55;0.60;;;20.70;37.50;;;;;;5014155;28;20026;-78
2021/04/28 12:34:46;;;;;;;2.47;0.73;;;20.50;37.50;;;;;;5017166;28;20030;-78
2021/04/28 12:37:23;;;;;;;2.25;0.70;;;20.70;38.10;;;;;;5016781;28;20018;-78
2021/04/28 12:39:49;;;;;;;2.47;0.80;;;20.90;37.70;;;;;;5016759;28;20045;-78
2021/04/28 12:42:20;;;;;;;2.50;0.70;;;21.00;36.70;;;;;;5014246;28;20096;-78